sensor_id;sensor_type;location;lat;lon;timestamp;pressure;altitude;pressure_sealevel;temperature;humidity
31346;BME280;21711;49.708;18.568;2023-05-22T00:02:02;97439.69;;;14.40;100.00
31346;BME280;21711;49.708;18.568;2023-05-22T00:04:30;97442.03;;;14.27;100.00
31346;BME280;21711;49.708;18.568;2023-05-22T00:06:58;97434.25;;;14.31;100.00
31346;BME280;21711;49.708;18.568;2023-05-22T00:09:25;97441.47;;;14.30;100.00
31346;BME280;21711;49.708;18.568;2023-05-22T00:11:53;97437.31;;;14.24;100.00
31346;BME280;21711;49.708;18.568;2023-05-22T00:14:20;97427.09;;;14.31;100.00
31346;BME280;21711;49.708;18.568;2023-05-22T00:16:47;97428.19;;;14.44;100.00
31346;BME280;21711;49.708;18.568;2023-05-22T00:19:15;97431.41;;;14.41;100.00
31346;BME280;21711;49.708;18.568;2023-05-22T00:21:43;97432.13;;;14.33;100.00
31346;BME280;21711;49.708;18.568;2023-05-22T00:24:11;97429.03;;;14.40;100.00
31346;BME280;21711;49.708;18.568;2023-05-22T00:26:38;97422.25;;;14.33;100.00
31346;BME280;21711;49.708;18.568;2023-05-22T00:29:06;97418.00;;;14.32;100.00
31346;BME280;21711;49.708;18.568;2023-05-22T00:31:33;97424.81;;;14.25;100.00
31346;BME280;21711;49.708;18.568;2023-05-22T00:34:00;97417.81;;;14.29;100.00
31346;BME280;21711;49.708;18.568;2023-05-22T00:36:28;97416.22;;;14.28;100.00
31346;BME280;21711;49.708;18.568;2023-05-22T00:38:55;97421.16;;;14.20;100.00
31346;BME280;21711;49.708;18.568;2023-05-22T00:41:23;97417.28;;;14.13;100.00
31346;BME280;21711;49.708;18.568;2023-05-22T00:43:50;97417.94;;;14.04;100.00
31346;BME280;21711;49.708;18.568;2023-05-22T00:46:18;97415.09;;;14.01;100.00
31346;BME280;21711;49.708;18.568;2023-05-22T00:48:47;97416.31;;;13.89;100.00
31346;BME280;21711;49.708;18.568;2023-05-22T00:51:15;97408.78;;;13.77;100.00
31346;BME280;21711;49.708;18.568;2023-05-22T00:53:42;97405.94;;;13.74;100.00
31346;BME280;21711;49.708;18.568;2023-05-22T00:56:11;97411.78;;;13.76;100.00
31346;BME280;21711;49.708;18.568;2023-05-22T00:58:39;97410.84;;;13.66;100.00
31346;BME280;21711;49.708;18.568;2023-05-22T01:01:09;97409.69;;;13.53;100.00
31346;BME280;21711;49.708;18.568;2023-05-22T01:03:41;97414.16;;;13.58;100.00
31346;BME280;21711;49.708;18.568;2023-05-22T01:06:16;97400.25;;;13.61;100.00
31346;BME280;21711;49.708;18.568;2023-05-22T01:08:47;97402.34;;;13.64;100.00
31346;BME280;21711;49.708;18.568;2023-05-22T01:11:24;97400.97;;;13.67;100.00
31346;BME280;21711;49.708;18.568;2023-05-22T01:17:06;97398.03;;;13.68;100.00
31346;BME280;21711;49.708;18.568;2023-05-22T01:19:51;97400.47;;;13.84;100.00
31346;BME280;21711;49.708;18.568;2023-05-22T01:31:12;97403.63;;;13.86;100.00
31346;BME280;21711;49.708;18.568;2023-05-22T01:33:47;97400.09;;;13.91;100.00
31346;BME280;21711;49.708;18.568;2023-05-22T01:36:18;97412.75;;;13.80;100.00
31346;BME280;21711;49.708;18.568;2023-05-22T01:38:49;97410.31;;;13.84;100.00
31346;BME280;21711;49.708;18.568;2023-05-22T01:41:18;97409.22;;;13.85;100.00
31346;BME280;21711;49.708;18.568;2023-05-22T01:43:46;97412.13;;;13.69;100.00
31346;BME280;21711;49.708;18.568;2023-05-22T01:46:14;97413.50;;;13.66;100.00
31346;BME280;21711;49.708;18.568;2023-05-22T01:48:41;97410.59;;;13.63;100.00
31346;BME280;21711;49.708;18.568;2023-05-22T01:54:36;97410.41;;;13.59;100.00
31346;BME280;21711;49.708;18.568;2023-05-22T01:57:20;97408.84;;;13.58;100.00
31346;BME280;21711;49.708;18.568;2023-05-22T02:00:09;97404.16;;;13.50;100.00
31346;BME280;21711;49.708;18.568;2023-05-22T02:02:50;97400.81;;;13.39;100.00
31346;BME280;21711;49.708;18.568;2023-05-22T02:05:21;97394.66;;;13.24;100.00
31346;BME280;21711;49.708;18.568;2023-05-22T02:07:49;97400.91;;;13.34;100.00
31346;BME280;21711;49.708;18.568;2023-05-22T02:10:17;97392.50;;;13.26;100.00
31346;BME280;21711;49.708;18.568;2023-05-22T02:12:46;97393.63;;;13.20;100.00
31346;BME280;21711;49.708;18.568;2023-05-22T02:15:15;97398.31;;;13.09;100.00
31346;BME280;21711;49.708;18.568;2023-05-22T02:17:42;97400.78;;;13.00;100.00
31346;BME280;21711;49.708;18.568;2023-05-22T02:20:14;97390.97;;;13.01;100.00
31346;BME280;21711;49.708;18.568;2023-05-22T02:22:45;97391.81;;;12.96;100.00
31346;BME280;21711;49.708;18.568;2023-05-22T02:25:14;97385.16;;;12.99;100.00
31346;BME280;21711;49.708;18.568;2023-05-22T02:27:47;97382.56;;;12.94;100.00
31346;BME280;21711;49.708;18.568;2023-05-22T02:30:15;97387.47;;;13.06;100.00
31346;BME280;21711;49.708;18.568;2023-05-22T02:32:46;97390.53;;;12.94;100.00
31346;BME280;21711;49.708;18.568;2023-05-22T02:35:13;97386.44;;;12.82;100.00
31346;BME280;21711;49.708;18.568;2023-05-22T02:37:41;97384.84;;;12.81;100.00
31346;BME280;21711;49.708;18.568;2023-05-22T02:40:09;97385.56;;;12.87;100.00
31346;BME280;21711;49.708;18.568;2023-05-22T02:42:36;97389.50;;;12.89;100.00
31346;BME280;21711;49.708;18.568;2023-05-22T02:45:05;97380.03;;;12.83;100.00
31346;BME280;21711;49.708;18.568;2023-05-22T02:47:32;97382.97;;;12.82;100.00
31346;BME280;21711;49.708;18.568;2023-05-22T02:50:00;97379.34;;;12.97;100.00
31346;BME280;21711;49.708;18.568;2023-05-22T02:52:29;97383.97;;;13.10;100.00
31346;BME280;21711;49.708;18.568;2023-05-22T02:54:56;97383.38;;;13.13;100.00
31346;BME280;21711;49.708;18.568;2023-05-22T02:57:24;97385.47;;;12.97;100.00
31346;BME280;21711;49.708;18.568;2023-05-22T02:59:51;97388.88;;;12.98;100.00
31346;BME280;21711;49.708;18.568;2023-05-22T03:02:20;97386.22;;;12.79;100.00
31346;BME280;21711;49.708;18.568;2023-05-22T03:04:47;97387.44;;;12.86;100.00
31346;BME280;21711;49.708;18.568;2023-05-22T03:07:14;97376.91;;;13.00;100.00
31346;BME280;21711;49.708;18.568;2023-05-22T03:09:43;97383.03;;;13.20;100.00
31346;BME280;21711;49.708;18.568;2023-05-22T03:12:11;97380.59;;;13.24;100.00
31346;BME280;21711;49.708;18.568;2023-05-22T03:14:38;97381.81;;;13.32;100.00
31346;BME280;21711;49.708;18.568;2023-05-22T03:17:05;97382.47;;;13.43;100.00
31346;BME280;21711;49.708;18.568;2023-05-22T03:19:33;97387.38;;;13.54;100.00
31346;BME280;21711;49.708;18.568;2023-05-22T03:22:00;97392.00;;;13.63;100.00
31346;BME280;21711;49.708;18.568;2023-05-22T03:24:28;97390.44;;;13.62;100.00
31346;BME280;21711;49.708;18.568;2023-05-22T03:26:58;97394.25;;;13.56;100.00
31346;BME280;21711;49.708;18.568;2023-05-22T03:29:34;97396.69;;;13.52;100.00
31346;BME280;21711;49.708;18.568;2023-05-22T03:32:03;97393.75;;;13.53;100.00
31346;BME280;21711;49.708;18.568;2023-05-22T03:34:30;97393.97;;;13.57;100.00
31346;BME280;21711;49.708;18.568;2023-05-22T03:36:59;97395.09;;;13.70;100.00
31346;BME280;21711;49.708;18.568;2023-05-22T03:39:27;97395.06;;;13.89;100.00
31346;BME280;21711;49.708;18.568;2023-05-22T03:42:12;97391.06;;;14.06;98.54
31346;BME280;21711;49.708;18.568;2023-05-22T03:44:40;97395.44;;;14.30;100.00
31346;BME280;21711;49.708;18.568;2023-05-22T03:47:07;97397.91;;;14.40;96.57
31346;BME280;21711;49.708;18.568;2023-05-22T03:49:34;97393.69;;;14.53;100.00
31346;BME280;21711;49.708;18.568;2023-05-22T03:52:04;97398.38;;;14.76;100.00
31346;BME280;21711;49.708;18.568;2023-05-22T03:54:31;97397.88;;;14.88;99.77
31346;BME280;21711;49.708;18.568;2023-05-22T03:56:59;97402.25;;;15.20;94.67
31346;BME280;21711;49.708;18.568;2023-05-22T03:59:26;97398.78;;;15.34;95.44
31346;BME280;21711;49.708;18.568;2023-05-22T04:01:54;97405.41;;;15.59;96.28
31346;BME280;21711;49.708;18.568;2023-05-22T04:04:24;97409.84;;;15.87;87.13
31346;BME280;21711;49.708;18.568;2023-05-22T04:06:53;97412.78;;;16.31;85.59
31346;BME280;21711;49.708;18.568;2023-05-22T04:09:20;97414.81;;;16.66;81.84
31346;BME280;21711;49.708;18.568;2023-05-22T04:11:47;97410.00;;;16.86;80.36
31346;BME280;21711;49.708;18.568;2023-05-22T04:14:15;97412.63;;;17.26;79.31
31346;BME280;21711;49.708;18.568;2023-05-22T04:16:42;97410.59;;;17.23;78.90
31346;BME280;21711;49.708;18.568;2023-05-22T04:19:11;97410.94;;;17.66;75.20
31346;BME280;21711;49.708;18.568;2023-05-22T04:21:38;97408.88;;;17.63;76.67
31346;BME280;21711;49.708;18.568;2023-05-22T04:24:06;97410.09;;;17.92;75.37
31346;BME280;21711;49.708;18.568;2023-05-22T04:26:36;97420.16;;;18.21;69.66
31346;BME280;21711;49.708;18.568;2023-05-22T04:29:07;97419.06;;;18.61;67.87
31346;BME280;21711;49.708;18.568;2023-05-22T04:31:36;97416.53;;;18.65;69.24
31346;BME280;21711;49.708;18.568;2023-05-22T04:34:04;97418.47;;;18.86;69.11
31346;BME280;21711;49.708;18.568;2023-05-22T04:36:32;97412.97;;;19.12;67.04
31346;BME280;21711;49.708;18.568;2023-05-22T04:39:00;97418.72;;;19.32;67.05
31346;BME280;21711;49.708;18.568;2023-05-22T04:41:31;97415.75;;;19.46;65.25
31346;BME280;21711;49.708;18.568;2023-05-22T04:43:58;97405.69;;;19.43;66.96
31346;BME280;21711;49.708;18.568;2023-05-22T04:46:26;97409.94;;;19.65;66.60
31346;BME280;21711;49.708;18.568;2023-05-22T04:48:54;97412.50;;;19.95;65.88
31346;BME280;21711;49.708;18.568;2023-05-22T04:51:22;97408.59;;;20.52;61.18
31346;BME280;21711;49.708;18.568;2023-05-22T04:53:49;97407.94;;;20.80;57.52
31346;BME280;21711;49.708;18.568;2023-05-22T04:56:18;97404.78;;;21.15;57.35
31346;BME280;21711;49.708;18.568;2023-05-22T04:59:01;97407.63;;;21.47;54.17
31346;BME280;21711;49.708;18.568;2023-05-22T05:01:31;97410.22;;;21.85;53.29
31346;BME280;21711;49.708;18.568;2023-05-22T05:04:02;97408.19;;;21.81;56.89
31346;BME280;21711;49.708;18.568;2023-05-22T05:06:30;97403.84;;;21.77;55.23
31346;BME280;21711;49.708;18.568;2023-05-22T05:08:57;97414.44;;;22.46;52.06
31346;BME280;21711;49.708;18.568;2023-05-22T05:11:24;97418.75;;;22.99;48.88
31346;BME280;21711;49.708;18.568;2023-05-22T05:13:52;97412.50;;;23.31;49.77
31346;BME280;21711;49.708;18.568;2023-05-22T05:16:19;97410.91;;;23.66;49.83
31346;BME280;21711;49.708;18.568;2023-05-22T05:18:47;97417.00;;;23.83;48.45
31346;BME280;21711;49.708;18.568;2023-05-22T05:21:14;97417.38;;;24.24;48.83
31346;BME280;21711;49.708;18.568;2023-05-22T05:23:41;97411.94;;;23.81;50.46
31346;BME280;21711;49.708;18.568;2023-05-22T05:26:09;97415.81;;;24.03;48.83
31346;BME280;21711;49.708;18.568;2023-05-22T05:28:36;97421.91;;;25.17;44.62
31346;BME280;21711;49.708;18.568;2023-05-22T05:31:05;97418.09;;;25.22;44.59
31346;BME280;21711;49.708;18.568;2023-05-22T05:33:56;97415.16;;;24.80;47.56
31346;BME280;21711;49.708;18.568;2023-05-22T05:36:47;97425.13;;;25.27;44.53
31346;BME280;21711;49.708;18.568;2023-05-22T05:39:16;97423.47;;;25.83;43.48
31346;BME280;21711;49.708;18.568;2023-05-22T05:41:43;97418.13;;;26.29;43.48
31346;BME280;21711;49.708;18.568;2023-05-22T05:44:10;97425.13;;;26.78;43.17
31346;BME280;21711;49.708;18.568;2023-05-22T05:46:38;97414.13;;;27.16;42.08
31346;BME280;21711;49.708;18.568;2023-05-22T05:49:07;97423.63;;;26.92;42.39
31346;BME280;21711;49.708;18.568;2023-05-22T05:51:39;97422.25;;;27.16;40.56
31346;BME280;21711;49.708;18.568;2023-05-22T05:54:07;97422.94;;;27.80;38.44
31346;BME280;21711;49.708;18.568;2023-05-22T05:56:35;97419.94;;;28.47;38.51
31346;BME280;21711;49.708;18.568;2023-05-22T05:59:03;97420.31;;;28.68;37.10
31346;BME280;21711;49.708;18.568;2023-05-22T06:01:51;97418.34;;;29.01;35.97
31346;BME280;21711;49.708;18.568;2023-05-22T06:04:23;97407.91;;;28.45;36.41
31346;BME280;21711;49.708;18.568;2023-05-22T06:06:51;97412.47;;;29.17;37.16
31346;BME280;21711;49.708;18.568;2023-05-22T06:09:34;97407.81;;;29.10;36.35
31346;BME280;21711;49.708;18.568;2023-05-22T06:12:10;97405.94;;;28.93;35.62
31346;BME280;21711;49.708;18.568;2023-05-22T06:14:42;97405.63;;;29.80;34.61
31346;BME280;21711;49.708;18.568;2023-05-22T06:17:09;97404.16;;;29.64;35.10
31346;BME280;21711;49.708;18.568;2023-05-22T06:19:39;97399.34;;;28.75;35.89
31346;BME280;21711;49.708;18.568;2023-05-22T06:22:07;97395.03;;;29.00;34.63
31346;BME280;21711;49.708;18.568;2023-05-22T06:24:36;97400.94;;;29.81;34.12
31346;BME280;21711;49.708;18.568;2023-05-22T06:27:10;97400.91;;;30.44;34.42
31346;BME280;21711;49.708;18.568;2023-05-22T06:29:37;97398.56;;;30.89;33.70
31346;BME280;21711;49.708;18.568;2023-05-22T06:32:06;97398.66;;;29.72;35.02
31346;BME280;21711;49.708;18.568;2023-05-22T06:34:35;97394.69;;;28.29;37.58
31346;BME280;21711;49.708;18.568;2023-05-22T06:37:04;97390.38;;;28.06;37.33
31346;BME280;21711;49.708;18.568;2023-05-22T06:39:38;97390.81;;;28.41;37.59
31346;BME280;21711;49.708;18.568;2023-05-22T06:42:10;97388.84;;;28.27;37.89
31346;BME280;21711;49.708;18.568;2023-05-22T06:45:07;97395.81;;;28.75;37.15
31346;BME280;21711;49.708;18.568;2023-05-22T06:47:45;97385.75;;;28.43;37.85
31346;BME280;21711;49.708;18.568;2023-05-22T06:50:12;97391.44;;;29.25;36.23
31346;BME280;21711;49.708;18.568;2023-05-22T06:52:40;97391.66;;;29.71;35.86
31346;BME280;21711;49.708;18.568;2023-05-22T06:55:10;97394.53;;;30.58;34.51
31346;BME280;21711;49.708;18.568;2023-05-22T06:57:50;97399.88;;;30.73;34.45
31346;BME280;21711;49.708;18.568;2023-05-22T07:00:18;97402.19;;;32.58;31.76
31346;BME280;21711;49.708;18.568;2023-05-22T07:03:11;97396.50;;;32.49;32.57
31346;BME280;21711;49.708;18.568;2023-05-22T07:05:54;97402.22;;;33.02;31.04
31346;BME280;21711;49.708;18.568;2023-05-22T07:08:24;97400.88;;;33.31;30.17
31346;BME280;21711;49.708;18.568;2023-05-22T07:10:55;97409.38;;;34.44;29.87
31346;BME280;21711;49.708;18.568;2023-05-22T07:13:23;97401.25;;;33.70;29.60
31346;BME280;21711;49.708;18.568;2023-05-22T07:15:51;97399.78;;;34.19;29.03
31346;BME280;21711;49.708;18.568;2023-05-22T07:18:18;97396.28;;;33.81;29.55
31346;BME280;21711;49.708;18.568;2023-05-22T07:20:46;97390.66;;;34.72;28.41
31346;BME280;21711;49.708;18.568;2023-05-22T07:23:17;97399.34;;;34.70;28.43
31346;BME280;21711;49.708;18.568;2023-05-22T07:25:44;97399.38;;;35.56;27.53
31346;BME280;21711;49.708;18.568;2023-05-22T07:28:13;97393.56;;;34.48;27.85
31346;BME280;21711;49.708;18.568;2023-05-22T07:30:50;97389.72;;;32.57;30.47
31346;BME280;21711;49.708;18.568;2023-05-22T07:33:18;97388.22;;;31.42;32.88
31346;BME280;21711;49.708;18.568;2023-05-22T07:35:45;97392.66;;;31.29;33.28
31346;BME280;21711;49.708;18.568;2023-05-22T07:38:13;97390.03;;;31.84;33.27
31346;BME280;21711;49.708;18.568;2023-05-22T07:40:48;97385.06;;;32.54;30.45
31346;BME280;21711;49.708;18.568;2023-05-22T07:43:16;97404.53;;;33.81;29.19
31346;BME280;21711;49.708;18.568;2023-05-22T07:45:43;97403.19;;;34.56;29.39
31346;BME280;21711;49.708;18.568;2023-05-22T07:48:13;97404.13;;;35.25;28.32
31346;BME280;21711;49.708;18.568;2023-05-22T07:50:41;97397.75;;;35.15;28.50
31346;BME280;21711;49.708;18.568;2023-05-22T07:53:11;97398.03;;;35.05;27.15
31346;BME280;21711;49.708;18.568;2023-05-22T07:55:41;97389.25;;;35.10;27.28
31346;BME280;21711;49.708;18.568;2023-05-22T07:58:09;97396.28;;;33.44;29.06
31346;BME280;21711;49.708;18.568;2023-05-22T08:00:40;97383.69;;;32.42;30.54
31346;BME280;21711;49.708;18.568;2023-05-22T08:03:07;97370.94;;;30.41;31.74
31346;BME280;21711;49.708;18.568;2023-05-22T08:05:35;97376.72;;;30.92;33.59
31346;BME280;21711;49.708;18.568;2023-05-22T08:08:02;97375.53;;;31.59;31.40
31346;BME280;21711;49.708;18.568;2023-05-22T08:10:30;97374.56;;;31.42;31.52
31346;BME280;21711;49.708;18.568;2023-05-22T08:13:13;97378.91;;;31.71;31.80
31346;BME280;21711;49.708;18.568;2023-05-22T08:15:42;97369.16;;;31.04;32.03
31346;BME280;21711;49.708;18.568;2023-05-22T08:18:10;97362.25;;;30.53;32.42
31346;BME280;21711;49.708;18.568;2023-05-22T08:20:37;97369.41;;;30.36;34.77
31346;BME280;21711;49.708;18.568;2023-05-22T08:23:05;97368.97;;;29.03;35.95
31346;BME280;21711;49.708;18.568;2023-05-22T08:25:32;97372.16;;;28.54;35.40
31346;BME280;21711;49.708;18.568;2023-05-22T08:28:00;97369.03;;;28.19;37.21
31346;BME280;21711;49.708;18.568;2023-05-22T08:30:27;97376.69;;;29.19;35.96
31346;BME280;21711;49.708;18.568;2023-05-22T08:32:54;97375.22;;;29.85;34.67
31346;BME280;21711;49.708;18.568;2023-05-22T08:35:22;97376.09;;;30.28;33.43
31346;BME280;21711;49.708;18.568;2023-05-22T08:37:49;97380.44;;;30.71;33.71
31346;BME280;21711;49.708;18.568;2023-05-22T08:40:19;97377.44;;;31.94;31.45
31346;BME280;21711;49.708;18.568;2023-05-22T08:42:48;97380.59;;;33.08;29.72
31346;BME280;21711;49.708;18.568;2023-05-22T08:45:20;97382.63;;;34.15;28.99
31346;BME280;21711;49.708;18.568;2023-05-22T08:47:51;97377.34;;;35.42;27.99
31346;BME280;21711;49.708;18.568;2023-05-22T08:50:21;97379.91;;;34.78;27.60
31346;BME280;21711;49.708;18.568;2023-05-22T08:52:51;97388.66;;;34.26;26.92
31346;BME280;21711;49.708;18.568;2023-05-22T08:55:19;97376.91;;;33.55;28.04
31346;BME280;21711;49.708;18.568;2023-05-22T08:57:46;97382.72;;;34.28;27.63
31346;BME280;21711;49.708;18.568;2023-05-22T09:00:16;97371.66;;;35.07;27.10
31346;BME280;21711;49.708;18.568;2023-05-22T09:02:44;97372.31;;;35.41;25.82
31346;BME280;21711;49.708;18.568;2023-05-22T09:05:13;97368.41;;;35.12;26.43
31346;BME280;21711;49.708;18.568;2023-05-22T09:07:42;97372.84;;;35.49;25.96
31346;BME280;21711;49.708;18.568;2023-05-22T09:10:09;97368.72;;;34.55;25.02
31346;BME280;21711;49.708;18.568;2023-05-22T09:12:37;97361.56;;;33.21;27.91
31346;BME280;21711;49.708;18.568;2023-05-22T09:15:10;97361.56;;;34.12;27.31
31346;BME280;21711;49.708;18.568;2023-05-22T09:17:39;97357.34;;;35.42;26.35
31346;BME280;21711;49.708;18.568;2023-05-22T09:20:08;97356.56;;;35.28;24.65
31346;BME280;21711;49.708;18.568;2023-05-22T09:22:39;97353.56;;;36.27;24.86
31346;BME280;21711;49.708;18.568;2023-05-22T09:25:07;97356.31;;;36.27;24.10
31346;BME280;21711;49.708;18.568;2023-05-22T09:27:34;97346.75;;;36.89;24.08
31346;BME280;21711;49.708;18.568;2023-05-22T09:30:02;97350.81;;;36.62;23.46
31346;BME280;21711;49.708;18.568;2023-05-22T09:32:29;97361.06;;;37.06;24.04
31346;BME280;21711;49.708;18.568;2023-05-22T09:35:04;97344.88;;;35.11;26.15
31346;BME280;21711;49.708;18.568;2023-05-22T09:37:34;97349.00;;;34.44;25.48
31346;BME280;21711;49.708;18.568;2023-05-22T09:40:10;97341.81;;;33.83;26.91
31346;BME280;21711;49.708;18.568;2023-05-22T09:42:38;97347.41;;;34.76;26.30
31346;BME280;21711;49.708;18.568;2023-05-22T09:45:07;97339.41;;;34.82;25.74
31346;BME280;21711;49.708;18.568;2023-05-22T09:47:34;97337.97;;;34.77;26.25
31346;BME280;21711;49.708;18.568;2023-05-22T09:50:04;97336.31;;;34.00;25.61
31346;BME280;21711;49.708;18.568;2023-05-22T09:52:35;97338.06;;;33.94;26.29
31346;BME280;21711;49.708;18.568;2023-05-22T09:55:05;97335.53;;;35.09;24.72
31346;BME280;21711;49.708;18.568;2023-05-22T09:57:43;97337.56;;;35.60;23.04
31346;BME280;21711;49.708;18.568;2023-05-22T10:00:12;97338.44;;;35.31;24.43
31346;BME280;21711;49.708;18.568;2023-05-22T10:02:48;97337.91;;;35.62;23.86
31346;BME280;21711;49.708;18.568;2023-05-22T10:05:17;97349.00;;;35.59;24.66
31346;BME280;21711;49.708;18.568;2023-05-22T10:07:56;97342.50;;;36.04;24.11
31346;BME280;21711;49.708;18.568;2023-05-22T10:10:27;97343.19;;;35.01;24.89
31346;BME280;21711;49.708;18.568;2023-05-22T10:13:03;97342.56;;;35.10;25.17
31346;BME280;21711;49.708;18.568;2023-05-22T10:15:31;97342.25;;;33.98;25.04
31346;BME280;21711;49.708;18.568;2023-05-22T10:17:58;97343.09;;;33.79;25.92
31346;BME280;21711;49.708;18.568;2023-05-22T10:20:28;97335.59;;;32.45;26.88
31346;BME280;21711;49.708;18.568;2023-05-22T10:22:56;97337.94;;;33.27;26.26
31346;BME280;21711;49.708;18.568;2023-05-22T10:25:23;97328.53;;;32.67;26.47
31346;BME280;21711;49.708;18.568;2023-05-22T10:27:53;97331.69;;;32.86;27.98
31346;BME280;21711;49.708;18.568;2023-05-22T10:33:35;97329.78;;;32.19;26.56
31346;BME280;21711;49.708;18.568;2023-05-22T10:40:09;97323.75;;;31.48;30.11
31346;BME280;21711;49.708;18.568;2023-05-22T10:42:38;97332.25;;;32.57;28.56
31346;BME280;21711;49.708;18.568;2023-05-22T10:45:09;97329.44;;;32.37;27.37
31346;BME280;21711;49.708;18.568;2023-05-22T10:47:36;97331.34;;;32.40;29.79
31346;BME280;21711;49.708;18.568;2023-05-22T10:50:08;97334.88;;;33.25;27.04
31346;BME280;21711;49.708;18.568;2023-05-22T10:52:38;97334.53;;;33.03;27.93
31346;BME280;21711;49.708;18.568;2023-05-22T10:55:10;97333.94;;;32.91;28.54
31346;BME280;21711;49.708;18.568;2023-05-22T10:57:38;97316.31;;;32.52;27.28
31346;BME280;21711;49.708;18.568;2023-05-22T11:00:11;97319.72;;;32.80;28.40
31346;BME280;21711;49.708;18.568;2023-05-22T11:02:44;97316.81;;;31.71;26.80
31346;BME280;21711;49.708;18.568;2023-05-22T11:07:48;97311.03;;;30.72;28.69
31346;BME280;21711;49.708;18.568;2023-05-22T11:10:25;97304.34;;;30.77;30.39
31346;BME280;21711;49.708;18.568;2023-05-22T11:13:10;97298.47;;;30.40;29.39
31346;BME280;21711;49.708;18.568;2023-05-22T11:15:44;97302.28;;;30.04;29.86
31346;BME280;21711;49.708;18.568;2023-05-22T11:18:12;97299.34;;;29.80;30.29
31346;BME280;21711;49.708;18.568;2023-05-22T11:20:41;97299.78;;;29.75;31.45
31346;BME280;21711;49.708;18.568;2023-05-22T11:23:10;97301.59;;;29.29;31.63
31346;BME280;21711;49.708;18.568;2023-05-22T11:25:40;97296.16;;;29.25;32.84
31346;BME280;21711;49.708;18.568;2023-05-22T11:28:08;97303.84;;;29.45;32.10
31346;BME280;21711;49.708;18.568;2023-05-22T11:30:37;97296.03;;;28.39;34.47
31346;BME280;21711;49.708;18.568;2023-05-22T11:33:06;97291.38;;;28.36;32.98
31346;BME280;21711;49.708;18.568;2023-05-22T11:35:33;97284.69;;;27.28;33.61
31346;BME280;21711;49.708;18.568;2023-05-22T11:38:03;97280.44;;;27.30;36.54
31346;BME280;21711;49.708;18.568;2023-05-22T11:40:34;97285.47;;;27.32;35.40
31346;BME280;21711;49.708;18.568;2023-05-22T11:43:01;97281.53;;;27.11;36.74
31346;BME280;21711;49.708;18.568;2023-05-22T11:45:30;97285.78;;;27.05;34.26
31346;BME280;21711;49.708;18.568;2023-05-22T11:47:58;97280.25;;;26.87;34.45
31346;BME280;21711;49.708;18.568;2023-05-22T11:50:25;97279.47;;;25.70;39.04
31346;BME280;21711;49.708;18.568;2023-05-22T11:53:08;97276.75;;;26.23;38.98
31346;BME280;21711;49.708;18.568;2023-05-22T11:55:36;97283.59;;;26.58;39.02
31346;BME280;21711;49.708;18.568;2023-05-22T11:58:03;97279.84;;;26.81;36.56
31346;BME280;21711;49.708;18.568;2023-05-22T12:00:31;97283.69;;;26.76;35.31
31346;BME280;21711;49.708;18.568;2023-05-22T12:02:58;97281.94;;;27.17;37.22
31346;BME280;21711;49.708;18.568;2023-05-22T12:05:26;97278.84;;;27.26;35.20
31346;BME280;21711;49.708;18.568;2023-05-22T12:07:53;97274.56;;;27.07;36.75
31346;BME280;21711;49.708;18.568;2023-05-22T12:10:21;97276.06;;;27.00;37.03
31346;BME280;21711;49.708;18.568;2023-05-22T12:12:48;97270.97;;;26.24;36.79
31346;BME280;21711;49.708;18.568;2023-05-22T12:15:19;97273.28;;;26.19;35.19
31346;BME280;21711;49.708;18.568;2023-05-22T12:17:47;97275.47;;;26.02;35.14
31346;BME280;21711;49.708;18.568;2023-05-22T12:20:14;97277.44;;;26.09;38.26
31346;BME280;21711;49.708;18.568;2023-05-22T12:22:42;97273.66;;;26.17;35.98
31346;BME280;21711;49.708;18.568;2023-05-22T12:25:14;97285.47;;;26.47;37.59
31346;BME280;21711;49.708;18.568;2023-05-22T12:27:46;97277.75;;;26.56;36.98
31346;BME280;21711;49.708;18.568;2023-05-22T12:30:14;97279.78;;;26.70;38.51
31346;BME280;21711;49.708;18.568;2023-05-22T12:32:47;97277.50;;;26.79;35.57
31346;BME280;21711;49.708;18.568;2023-05-22T12:35:16;97274.13;;;26.97;34.55
31346;BME280;21711;49.708;18.568;2023-05-22T12:37:49;97271.47;;;27.19;36.93
31346;BME280;21711;49.708;18.568;2023-05-22T12:40:16;97271.09;;;27.24;35.38
31346;BME280;21711;49.708;18.568;2023-05-22T12:42:44;97278.47;;;27.31;34.60
31346;BME280;21711;49.708;18.568;2023-05-22T12:45:12;97271.50;;;27.34;36.43
31346;BME280;21711;49.708;18.568;2023-05-22T12:47:40;97272.03;;;26.69;34.71
31346;BME280;21711;49.708;18.568;2023-05-22T12:50:07;97273.56;;;26.66;36.63
31346;BME280;21711;49.708;18.568;2023-05-22T12:52:35;97273.94;;;26.68;35.18
31346;BME280;21711;49.708;18.568;2023-05-22T12:55:03;97274.31;;;26.59;35.22
31346;BME280;21711;49.708;18.568;2023-05-22T12:57:30;97269.00;;;26.85;34.41
31346;BME280;21711;49.708;18.568;2023-05-22T12:59:58;97270.31;;;27.16;35.36
31346;BME280;21711;49.708;18.568;2023-05-22T13:02:25;97262.53;;;27.11;37.15
31346;BME280;21711;49.708;18.568;2023-05-22T13:04:52;97267.47;;;26.87;36.37
31346;BME280;21711;49.708;18.568;2023-05-22T13:07:20;97278.19;;;26.58;36.29
31346;BME280;21711;49.708;18.568;2023-05-22T13:09:47;97268.50;;;26.61;36.18
31346;BME280;21711;49.708;18.568;2023-05-22T13:12:15;97264.59;;;25.98;36.15
31346;BME280;21711;49.708;18.568;2023-05-22T13:14:42;97262.59;;;25.88;38.92
31346;BME280;21711;49.708;18.568;2023-05-22T13:17:10;97269.63;;;26.52;37.15
31346;BME280;21711;49.708;18.568;2023-05-22T13:19:37;97261.91;;;25.98;36.66
31346;BME280;21711;49.708;18.568;2023-05-22T13:22:05;97265.88;;;26.12;36.80
31346;BME280;21711;49.708;18.568;2023-05-22T13:24:33;97266.84;;;26.38;37.85
31346;BME280;21711;49.708;18.568;2023-05-22T13:27:01;97262.97;;;26.39;36.80